sensor_id;sensor_type;location;lat;lon;timestamp;P1;durP1;ratioP1;P2;durP2;ratioP2
5167;SDS011;2603;48.918;8.980;2024-02-26T00:01:44;12.70;;;4.90;;
5167;SDS011;2603;48.918;8.980;2024-02-26T00:04:12;12.20;;;5.20;;
5167;SDS011;2603;48.918;8.980;2024-02-26T00:06:39;12.00;;;4.70;;
5167;SDS011;2603;48.918;8.980;2024-02-26T00:09:06;12.60;;;5.30;;
5167;SDS011;2603;48.918;8.980;2024-02-26T00:11:33;13.07;;;7.77;;
5167;SDS011;2603;48.918;8.980;2024-02-26T00:13:59;13.87;;;4.70;;
5167;SDS011;2603;48.918;8.980;2024-02-26T00:16:26;20.67;;;8.13;;
5167;SDS011;2603;48.918;8.980;2024-02-26T00:18:52;15.80;;;7.03;;
5167;SDS011;2603;48.918;8.980;2024-02-26T00:21:20;11.63;;;6.20;;
5167;SDS011;2603;48.918;8.980;2024-02-26T00:23:47;12.97;;;6.27;;
5167;SDS011;2603;48.918;8.980;2024-02-26T00:26:13;14.40;;;6.23;;
5167;SDS011;2603;48.918;8.980;2024-02-26T00:28:40;10.77;;;5.50;;
5167;SDS011;2603;48.918;8.980;2024-02-26T00:31:05;15.77;;;6.90;;
5167;SDS011;2603;48.918;8.980;2024-02-26T00:33:32;18.30;;;6.03;;
5167;SDS011;2603;48.918;8.980;2024-02-26T00:35:58;12.27;;;6.00;;
5167;SDS011;2603;48.918;8.980;2024-02-26T00:38:26;13.70;;;6.10;;
5167;SDS011;2603;48.918;8.980;2024-02-26T00:40:53;11.03;;;5.60;;
5167;SDS011;2603;48.918;8.980;2024-02-26T00:43:19;8.07;;;5.17;;
5167;SDS011;2603;48.918;8.980;2024-02-26T00:45:46;11.63;;;5.43;;
5167;SDS011;2603;48.918;8.980;2024-02-26T00:48:12;10.20;;;5.70;;
5167;SDS011;2603;48.918;8.980;2024-02-26T00:50:39;10.13;;;6.10;;
5167;SDS011;2603;48.918;8.980;2024-02-26T00:53:05;10.97;;;5.07;;
5167;SDS011;2603;48.918;8.980;2024-02-26T00:55:35;11.77;;;5.10;;
5167;SDS011;2603;48.918;8.980;2024-02-26T00:58:01;12.13;;;5.10;;
5167;SDS011;2603;48.918;8.980;2024-02-26T01:00:28;13.93;;;5.60;;
5167;SDS011;2603;48.918;8.980;2024-02-26T01:02:54;10.27;;;5.10;;
5167;SDS011;2603;48.918;8.980;2024-02-26T01:05:21;17.27;;;4.97;;
5167;SDS011;2603;48.918;8.980;2024-02-26T01:07:48;13.53;;;5.83;;
5167;SDS011;2603;48.918;8.980;2024-02-26T01:10:14;13.57;;;5.30;;
5167;SDS011;2603;48.918;8.980;2024-02-26T01:12:42;10.27;;;4.80;;
5167;SDS011;2603;48.918;8.980;2024-02-26T01:15:09;9.50;;;4.63;;
5167;SDS011;2603;48.918;8.980;2024-02-26T01:17:36;12.10;;;6.00;;
5167;SDS011;2603;48.918;8.980;2024-02-26T01:20:04;11.73;;;5.03;;
5167;SDS011;2603;48.918;8.980;2024-02-26T01:22:31;11.90;;;5.47;;
5167;SDS011;2603;48.918;8.980;2024-02-26T01:24:57;19.33;;;6.07;;
5167;SDS011;2603;48.918;8.980;2024-02-26T01:27:24;11.30;;;5.00;;
5167;SDS011;2603;48.918;8.980;2024-02-26T01:29:53;9.70;;;4.30;;
5167;SDS011;2603;48.918;8.980;2024-02-26T01:32:20;8.80;;;4.10;;
5167;SDS011;2603;48.918;8.980;2024-02-26T01:34:46;9.73;;;4.50;;
5167;SDS011;2603;48.918;8.980;2024-02-26T01:37:13;5.70;;;3.63;;
5167;SDS011;2603;48.918;8.980;2024-02-26T01:39:39;10.40;;;5.10;;
5167;SDS011;2603;48.918;8.980;2024-02-26T01:42:06;8.10;;;4.50;;
5167;SDS011;2603;48.918;8.980;2024-02-26T01:44:33;10.70;;;5.30;;
5167;SDS011;2603;48.918;8.980;2024-02-26T01:47:01;10.00;;;4.57;;
5167;SDS011;2603;48.918;8.980;2024-02-26T01:49:28;9.67;;;4.20;;
5167;SDS011;2603;48.918;8.980;2024-02-26T01:51:55;4.27;;;2.47;;
5167;SDS011;2603;48.918;8.980;2024-02-26T01:54:22;8.07;;;3.37;;
5167;SDS011;2603;48.918;8.980;2024-02-26T01:56:48;8.27;;;3.30;;
5167;SDS011;2603;48.918;8.980;2024-02-26T01:59:15;6.80;;;3.53;;
5167;SDS011;2603;48.918;8.980;2024-02-26T02:01:42;4.13;;;2.57;;
5167;SDS011;2603;48.918;8.980;2024-02-26T02:04:12;6.30;;;3.07;;
5167;SDS011;2603;48.918;8.980;2024-02-26T02:06:39;6.20;;;2.93;;
5167;SDS011;2603;48.918;8.980;2024-02-26T02:09:07;7.30;;;3.57;;
5167;SDS011;2603;48.918;8.980;2024-02-26T02:11:34;5.30;;;3.10;;
5167;SDS011;2603;48.918;8.980;2024-02-26T02:14:00;6.10;;;3.20;;
5167;SDS011;2603;48.918;8.980;2024-02-26T02:16:27;6.77;;;3.10;;
5167;SDS011;2603;48.918;8.980;2024-02-26T02:18:53;5.60;;;3.33;;
5167;SDS011;2603;48.918;8.980;2024-02-26T02:21:21;5.60;;;3.50;;
5167;SDS011;2603;48.918;8.980;2024-02-26T02:23:48;5.73;;;3.30;;
5167;SDS011;2603;48.918;8.980;2024-02-26T02:26:14;5.60;;;4.07;;
5167;SDS011;2603;48.918;8.980;2024-02-26T02:28:41;6.10;;;3.30;;
5167;SDS011;2603;48.918;8.980;2024-02-26T02:31:08;5.47;;;2.90;;
5167;SDS011;2603;48.918;8.980;2024-02-26T02:33:35;5.97;;;2.60;;
5167;SDS011;2603;48.918;8.980;2024-02-26T02:36:02;5.33;;;2.50;;
5167;SDS011;2603;48.918;8.980;2024-02-26T02:38:30;4.47;;;2.90;;
5167;SDS011;2603;48.918;8.980;2024-02-26T02:40:59;5.43;;;3.03;;
5167;SDS011;2603;48.918;8.980;2024-02-26T02:43:25;4.73;;;3.20;;
5167;SDS011;2603;48.918;8.980;2024-02-26T02:45:52;3.67;;;2.50;;
5167;SDS011;2603;48.918;8.980;2024-02-26T02:48:18;5.33;;;2.60;;
5167;SDS011;2603;48.918;8.980;2024-02-26T02:50:45;11.80;;;2.77;;
5167;SDS011;2603;48.918;8.980;2024-02-26T02:53:11;4.37;;;3.00;;
5167;SDS011;2603;48.918;8.980;2024-02-26T02:55:39;6.87;;;2.80;;
5167;SDS011;2603;48.918;8.980;2024-02-26T02:58:06;6.63;;;5.47;;
5167;SDS011;2603;48.918;8.980;2024-02-26T03:00:32;5.20;;;3.93;;
5167;SDS011;2603;48.918;8.980;2024-02-26T03:02:59;6.10;;;4.47;;
5167;SDS011;2603;48.918;8.980;2024-02-26T03:05:25;4.50;;;3.00;;
5167;SDS011;2603;48.918;8.980;2024-02-26T03:07:52;6.20;;;3.40;;
5167;SDS011;2603;48.918;8.980;2024-02-26T03:10:17;5.87;;;3.00;;
5167;SDS011;2603;48.918;8.980;2024-02-26T03:12:46;4.20;;;2.80;;
5167;SDS011;2603;48.918;8.980;2024-02-26T03:15:12;5.67;;;3.30;;
5167;SDS011;2603;48.918;8.980;2024-02-26T03:17:39;7.33;;;3.07;;
5167;SDS011;2603;48.918;8.980;2024-02-26T03:20:06;5.20;;;2.90;;
5167;SDS011;2603;48.918;8.980;2024-02-26T03:22:34;5.37;;;3.03;;
5167;SDS011;2603;48.918;8.980;2024-02-26T03:25:01;5.57;;;3.17;;
5167;SDS011;2603;48.918;8.980;2024-02-26T03:27:27;7.57;;;3.60;;
5167;SDS011;2603;48.918;8.980;2024-02-26T03:29:55;9.73;;;5.90;;
5167;SDS011;2603;48.918;8.980;2024-02-26T03:32:22;11.00;;;5.60;;
5167;SDS011;2603;48.918;8.980;2024-02-26T03:34:48;12.90;;;5.60;;
5167;SDS011;2603;48.918;8.980;2024-02-26T03:37:15;8.03;;;4.17;;
5167;SDS011;2603;48.918;8.980;2024-02-26T03:39:41;6.73;;;3.70;;
5167;SDS011;2603;48.918;8.980;2024-02-26T03:42:08;9.67;;;3.93;;
5167;SDS011;2603;48.918;8.980;2024-02-26T03:44:35;9.70;;;3.50;;
5167;SDS011;2603;48.918;8.980;2024-02-26T03:47:03;6.07;;;3.30;;
5167;SDS011;2603;48.918;8.980;2024-02-26T03:49:29;7.10;;;4.10;;
5167;SDS011;2603;48.918;8.980;2024-02-26T03:51:56;8.83;;;4.80;;
5167;SDS011;2603;48.918;8.980;2024-02-26T03:54:22;5.83;;;3.30;;
5167;SDS011;2603;48.918;8.980;2024-02-26T03:56:49;7.33;;;4.10;;
5167;SDS011;2603;48.918;8.980;2024-02-26T03:59:15;8.33;;;4.10;;
5167;SDS011;2603;48.918;8.980;2024-02-26T04:01:44;7.33;;;4.40;;
5167;SDS011;2603;48.918;8.980;2024-02-26T04:04:12;7.20;;;3.50;;
5167;SDS011;2603;48.918;8.980;2024-02-26T04:06:39;7.50;;;3.80;;
5167;SDS011;2603;48.918;8.980;2024-02-26T04:09:05;7.07;;;3.17;;
5167;SDS011;2603;48.918;8.980;2024-02-26T04:11:32;4.53;;;3.00;;
5167;SDS011;2603;48.918;8.980;2024-02-26T04:13:59;5.53;;;2.70;;
5167;SDS011;2603;48.918;8.980;2024-02-26T04:16:25;4.10;;;2.40;;
5167;SDS011;2603;48.918;8.980;2024-02-26T04:18:52;6.80;;;2.97;;
5167;SDS011;2603;48.918;8.980;2024-02-26T04:21:21;9.00;;;3.20;;
5167;SDS011;2603;48.918;8.980;2024-02-26T04:23:47;14.73;;;2.67;;
5167;SDS011;2603;48.918;8.980;2024-02-26T04:26:15;3.87;;;2.33;;
5167;SDS011;2603;48.918;8.980;2024-02-26T04:28:41;4.60;;;2.83;;
5167;SDS011;2603;48.918;8.980;2024-02-26T04:31:08;3.70;;;2.17;;
5167;SDS011;2603;48.918;8.980;2024-02-26T04:33:34;3.40;;;2.10;;
5167;SDS011;2603;48.918;8.980;2024-02-26T04:36:01;5.50;;;2.27;;
5167;SDS011;2603;48.918;8.980;2024-02-26T04:38:29;5.00;;;2.30;;
5167;SDS011;2603;48.918;8.980;2024-02-26T04:40:56;4.33;;;2.63;;
5167;SDS011;2603;48.918;8.980;2024-02-26T04:43:22;4.47;;;3.07;;
5167;SDS011;2603;48.918;8.980;2024-02-26T04:45:49;5.80;;;2.70;;
5167;SDS011;2603;48.918;8.980;2024-02-26T04:48:15;4.30;;;2.60;;
5167;SDS011;2603;48.918;8.980;2024-02-26T04:50:42;4.63;;;2.43;;
5167;SDS011;2603;48.918;8.980;2024-02-26T04:53:08;5.30;;;3.20;;
5167;SDS011;2603;48.918;8.980;2024-02-26T04:55:36;6.33;;;2.33;;
5167;SDS011;2603;48.918;8.980;2024-02-26T04:58:03;3.80;;;2.70;;
5167;SDS011;2603;48.918;8.980;2024-02-26T05:00:30;5.20;;;3.00;;
5167;SDS011;2603;48.918;8.980;2024-02-26T05:02:56;5.30;;;3.40;;
5167;SDS011;2603;48.918;8.980;2024-02-26T05:05:23;5.60;;;2.67;;
5167;SDS011;2603;48.918;8.980;2024-02-26T05:07:50;6.53;;;3.73;;
5167;SDS011;2603;48.918;8.980;2024-02-26T05:10:16;9.10;;;3.90;;
5167;SDS011;2603;48.918;8.980;2024-02-26T05:12:44;5.70;;;3.20;;
5167;SDS011;2603;48.918;8.980;2024-02-26T05:15:11;14.30;;;3.50;;
5167;SDS011;2603;48.918;8.980;2024-02-26T05:17:43;7.47;;;3.83;;
5167;SDS011;2603;48.918;8.980;2024-02-26T05:20:09;8.27;;;3.50;;
5167;SDS011;2603;48.918;8.980;2024-02-26T05:22:36;5.97;;;3.00;;
5167;SDS011;2603;48.918;8.980;2024-02-26T05:25:03;6.60;;;3.50;;
5167;SDS011;2603;48.918;8.980;2024-02-26T05:27:30;3.33;;;2.53;;
5167;SDS011;2603;48.918;8.980;2024-02-26T05:29:58;6.60;;;3.20;;
5167;SDS011;2603;48.918;8.980;2024-02-26T05:32:25;5.07;;;3.30;;
5167;SDS011;2603;48.918;8.980;2024-02-26T05:34:51;4.70;;;2.20;;
5167;SDS011;2603;48.918;8.980;2024-02-26T05:37:18;4.23;;;3.20;;
5167;SDS011;2603;48.918;8.980;2024-02-26T05:39:45;6.17;;;4.40;;
5167;SDS011;2603;48.918;8.980;2024-02-26T05:42:11;4.53;;;2.27;;
5167;SDS011;2603;48.918;8.980;2024-02-26T05:44:38;11.67;;;4.77;;
5167;SDS011;2603;48.918;8.980;2024-02-26T05:47:05;8.10;;;4.73;;
5167;SDS011;2603;48.918;8.980;2024-02-26T05:49:32;5.83;;;4.03;;
5167;SDS011;2603;48.918;8.980;2024-02-26T05:51:59;5.93;;;3.60;;
5167;SDS011;2603;48.918;8.980;2024-02-26T05:54:27;9.57;;;4.37;;
5167;SDS011;2603;48.918;8.980;2024-02-26T05:56:54;10.03;;;4.57;;
5167;SDS011;2603;48.918;8.980;2024-02-26T05:59:21;6.27;;;3.77;;
5167;SDS011;2603;48.918;8.980;2024-02-26T06:01:48;7.70;;;4.57;;
5167;SDS011;2603;48.918;8.980;2024-02-26T06:04:22;7.00;;;4.07;;
5167;SDS011;2603;48.918;8.980;2024-02-26T06:06:48;11.10;;;5.93;;
5167;SDS011;2603;48.918;8.980;2024-02-26T06:09:15;8.60;;;4.70;;
5167;SDS011;2603;48.918;8.980;2024-02-26T06:11:42;5.53;;;2.90;;
5167;SDS011;2603;48.918;8.980;2024-02-26T06:14:08;19.53;;;12.83;;
5167;SDS011;2603;48.918;8.980;2024-02-26T06:16:35;11.77;;;7.40;;
5167;SDS011;2603;48.918;8.980;2024-02-26T06:19:04;9.40;;;4.00;;
5167;SDS011;2603;48.918;8.980;2024-02-26T06:21:32;8.83;;;4.17;;
5167;SDS011;2603;48.918;8.980;2024-02-26T06:24:00;8.30;;;2.90;;
5167;SDS011;2603;48.918;8.980;2024-02-26T06:26:27;6.20;;;3.07;;
5167;SDS011;2603;48.918;8.980;2024-02-26T06:28:54;4.27;;;2.60;;
5167;SDS011;2603;48.918;8.980;2024-02-26T06:31:21;8.80;;;4.83;;
5167;SDS011;2603;48.918;8.980;2024-02-26T06:33:48;5.67;;;3.57;;
5167;SDS011;2603;48.918;8.980;2024-02-26T06:36:15;5.77;;;2.90;;
5167;SDS011;2603;48.918;8.980;2024-02-26T06:38:43;5.93;;;3.10;;
5167;SDS011;2603;48.918;8.980;2024-02-26T06:41:10;6.73;;;3.30;;
5167;SDS011;2603;48.918;8.980;2024-02-26T06:43:39;5.30;;;2.37;;
5167;SDS011;2603;48.918;8.980;2024-02-26T06:46:06;5.03;;;2.93;;
5167;SDS011;2603;48.918;8.980;2024-02-26T06:48:34;6.57;;;2.60;;
5167;SDS011;2603;48.918;8.980;2024-02-26T06:51:02;7.53;;;2.90;;
5167;SDS011;2603;48.918;8.980;2024-02-26T06:53:28;3.30;;;2.20;;
5167;SDS011;2603;48.918;8.980;2024-02-26T06:55:56;5.23;;;2.90;;
5167;SDS011;2603;48.918;8.980;2024-02-26T06:58:23;4.43;;;2.20;;
5167;SDS011;2603;48.918;8.980;2024-02-26T07:00:54;4.50;;;2.77;;
5167;SDS011;2603;48.918;8.980;2024-02-26T07:03:20;6.13;;;3.43;;
5167;SDS011;2603;48.918;8.980;2024-02-26T07:05:48;28.27;;;4.17;;
5167;SDS011;2603;48.918;8.980;2024-02-26T07:08:14;13.23;;;3.50;;
5167;SDS011;2603;48.918;8.980;2024-02-26T07:10:41;6.87;;;2.90;;
5167;SDS011;2603;48.918;8.980;2024-02-26T07:13:10;5.43;;;2.80;;
5167;SDS011;2603;48.918;8.980;2024-02-26T07:15:36;4.80;;;3.60;;
5167;SDS011;2603;48.918;8.980;2024-02-26T07:18:03;4.57;;;2.50;;
5167;SDS011;2603;48.918;8.980;2024-02-26T07:20:30;6.60;;;2.83;;
5167;SDS011;2603;48.918;8.980;2024-02-26T07:22:57;5.17;;;3.10;;
5167;SDS011;2603;48.918;8.980;2024-02-26T07:25:24;5.37;;;3.47;;
5167;SDS011;2603;48.918;8.980;2024-02-26T07:27:50;9.03;;;3.83;;
5167;SDS011;2603;48.918;8.980;2024-02-26T07:30:18;6.50;;;3.70;;
5167;SDS011;2603;48.918;8.980;2024-02-26T07:32:45;10.67;;;4.40;;
5167;SDS011;2603;48.918;8.980;2024-02-26T07:35:11;21.60;;;7.50;;
5167;SDS011;2603;48.918;8.980;2024-02-26T07:37:38;16.70;;;7.57;;
5167;SDS011;2603;48.918;8.980;2024-02-26T07:40:05;8.17;;;4.57;;
5167;SDS011;2603;48.918;8.980;2024-02-26T07:42:33;9.47;;;4.00;;
5167;SDS011;2603;48.918;8.980;2024-02-26T07:44:59;5.97;;;3.43;;
5167;SDS011;2603;48.918;8.980;2024-02-26T07:47:27;9.40;;;3.83;;
5167;SDS011;2603;48.918;8.980;2024-02-26T07:49:54;6.17;;;3.43;;
5167;SDS011;2603;48.918;8.980;2024-02-26T07:52:21;5.03;;;3.00;;
5167;SDS011;2603;48.918;8.980;2024-02-26T07:54:47;7.87;;;3.17;;
5167;SDS011;2603;48.918;8.980;2024-02-26T07:57:14;8.43;;;3.50;;
5167;SDS011;2603;48.918;8.980;2024-02-26T07:59:42;4.53;;;2.80;;
5167;SDS011;2603;48.918;8.980;2024-02-26T08:02:10;4.90;;;2.80;;
5167;SDS011;2603;48.918;8.980;2024-02-26T08:04:37;25.27;;;3.80;;
5167;SDS011;2603;48.918;8.980;2024-02-26T08:07:04;8.93;;;4.10;;
5167;SDS011;2603;48.918;8.980;2024-02-26T08:09:31;5.23;;;3.50;;
5167;SDS011;2603;48.918;8.980;2024-02-26T08:11:58;7.03;;;3.80;;
5167;SDS011;2603;48.918;8.980;2024-02-26T08:14:25;11.40;;;3.60;;
5167;SDS011;2603;48.918;8.980;2024-02-26T08:16:51;6.03;;;4.20;;
5167;SDS011;2603;48.918;8.980;2024-02-26T08:19:18;7.63;;;4.37;;
5167;SDS011;2603;48.918;8.980;2024-02-26T08:21:46;7.03;;;4.20;;
5167;SDS011;2603;48.918;8.980;2024-02-26T08:24:12;10.43;;;4.10;;
5167;SDS011;2603;48.918;8.980;2024-02-26T08:26:39;10.87;;;4.30;;
5167;SDS011;2603;48.918;8.980;2024-02-26T08:29:05;5.63;;;3.60;;
5167;SDS011;2603;48.918;8.980;2024-02-26T08:31:32;6.27;;;3.73;;
5167;SDS011;2603;48.918;8.980;2024-02-26T08:33:58;9.97;;;4.03;;
5167;SDS011;2603;48.918;8.980;2024-02-26T08:36:25;8.13;;;3.97;;
5167;SDS011;2603;48.918;8.980;2024-02-26T08:38:53;8.90;;;3.80;;
5167;SDS011;2603;48.918;8.980;2024-02-26T08:41:20;6.40;;;4.07;;
5167;SDS011;2603;48.918;8.980;2024-02-26T08:43:46;7.97;;;4.30;;
5167;SDS011;2603;48.918;8.980;2024-02-26T08:46:13;10.40;;;4.80;;
5167;SDS011;2603;48.918;8.980;2024-02-26T08:48:40;6.00;;;3.60;;
5167;SDS011;2603;48.918;8.980;2024-02-26T08:51:07;9.13;;;4.10;;
5167;SDS011;2603;48.918;8.980;2024-02-26T08:53:34;6.57;;;3.83;;
5167;SDS011;2603;48.918;8.980;2024-02-26T08:56:03;6.83;;;4.83;;
5167;SDS011;2603;48.918;8.980;2024-02-26T08:58:30;9.97;;;4.97;;
5167;SDS011;2603;48.918;8.980;2024-02-26T09:00:56;14.03;;;5.37;;
5167;SDS011;2603;48.918;8.980;2024-02-26T09:03:23;7.93;;;3.87;;
5167;SDS011;2603;48.918;8.980;2024-02-26T09:05:49;15.50;;;6.47;;
5167;SDS011;2603;48.918;8.980;2024-02-26T09:08:16;81.23;;;25.90;;
5167;SDS011;2603;48.918;8.980;2024-02-26T09:10:42;21.33;;;10.30;;
5167;SDS011;2603;48.918;8.980;2024-02-26T09:13:10;8.20;;;4.73;;
5167;SDS011;2603;48.918;8.980;2024-02-26T09:15:37;9.77;;;4.30;;
5167;SDS011;2603;48.918;8.980;2024-02-26T09:18:04;11.23;;;5.57;;
5167;SDS011;2603;48.918;8.980;2024-02-26T09:20:30;6.87;;;4.33;;
5167;SDS011;2603;48.918;8.980;2024-02-26T09:22:58;12.23;;;4.27;;
5167;SDS011;2603;48.918;8.980;2024-02-26T09:25:24;5.83;;;4.23;;
5167;SDS011;2603;48.918;8.980;2024-02-26T09:27:51;10.17;;;4.70;;
5167;SDS011;2603;48.918;8.980;2024-02-26T09:30:19;12.43;;;5.00;;
5167;SDS011;2603;48.918;8.980;2024-02-26T09:32:46;22.40;;;3.77;;
5167;SDS011;2603;48.918;8.980;2024-02-26T09:35:14;9.10;;;4.10;;
5167;SDS011;2603;48.918;8.980;2024-02-26T09:37:40;6.30;;;3.10;;
5167;SDS011;2603;48.918;8.980;2024-02-26T09:40:09;9.17;;;3.60;;
5167;SDS011;2603;48.918;8.980;2024-02-26T09:42:36;8.93;;;3.40;;
5167;SDS011;2603;48.918;8.980;2024-02-26T09:45:05;7.80;;;3.83;;
5167;SDS011;2603;48.918;8.980;2024-02-26T09:47:34;5.33;;;3.50;;
5167;SDS011;2603;48.918;8.980;2024-02-26T09:50:03;5.17;;;3.50;;
5167;SDS011;2603;48.918;8.980;2024-02-26T09:52:30;10.63;;;3.50;;
5167;SDS011;2603;48.918;8.980;2024-02-26T09:54:59;5.60;;;3.37;;
5167;SDS011;2603;48.918;8.980;2024-02-26T09:57:26;5.67;;;3.60;;
5167;SDS011;2603;48.918;8.980;2024-02-26T09:59:53;6.43;;;3.93;;
5167;SDS011;2603;48.918;8.980;2024-02-26T10:02:20;5.83;;;3.30;;
5167;SDS011;2603;48.918;8.980;2024-02-26T10:04:48;6.50;;;4.00;;
5167;SDS011;2603;48.918;8.980;2024-02-26T10:07:16;9.10;;;3.70;;
5167;SDS011;2603;48.918;8.980;2024-02-26T10:09:42;6.47;;;3.80;;
5167;SDS011;2603;48.918;8.980;2024-02-26T10:12:10;11.13;;;3.40;;
5167;SDS011;2603;48.918;8.980;2024-02-26T10:14:37;6.63;;;3.10;;
5167;SDS011;2603;48.918;8.980;2024-02-26T10:17:04;7.57;;;4.17;;
5167;SDS011;2603;48.918;8.980;2024-02-26T10:19:33;9.83;;;3.70;;
5167;SDS011;2603;48.918;8.980;2024-02-26T10:22:01;5.80;;;3.30;;
5167;SDS011;2603;48.918;8.980;2024-02-26T10:24:28;5.50;;;3.20;;
5167;SDS011;2603;48.918;8.980;2024-02-26T10:26:56;6.40;;;3.73;;
5167;SDS011;2603;48.918;8.980;2024-02-26T10:29:23;4.87;;;2.67;;
5167;SDS011;2603;48.918;8.980;2024-02-26T10:31:51;6.73;;;3.50;;
5167;SDS011;2603;48.918;8.980;2024-02-26T10:34:18;9.07;;;3.70;;
5167;SDS011;2603;48.918;8.980;2024-02-26T10:36:44;6.83;;;3.90;;
5167;SDS011;2603;48.918;8.980;2024-02-26T10:39:12;7.00;;;4.03;;
5167;SDS011;2603;48.918;8.980;2024-02-26T10:41:39;12.80;;;3.40;;
5167;SDS011;2603;48.918;8.980;2024-02-26T10:44:08;6.40;;;3.30;;
5167;SDS011;2603;48.918;8.980;2024-02-26T10:46:35;6.47;;;3.60;;
5167;SDS011;2603;48.918;8.980;2024-02-26T10:49:02;5.47;;;3.07;;
5167;SDS011;2603;48.918;8.980;2024-02-26T10:51:30;8.20;;;3.30;;
5167;SDS011;2603;48.918;8.980;2024-02-26T10:53:57;6.30;;;3.30;;
5167;SDS011;2603;48.918;8.980;2024-02-26T10:56:28;8.13;;;3.63;;
5167;SDS011;2603;48.918;8.980;2024-02-26T10:58:55;7.20;;;3.17;;
5167;SDS011;2603;48.918;8.980;2024-02-26T11:01:22;5.10;;;2.97;;
5167;SDS011;2603;48.918;8.980;2024-02-26T11:03:51;5.87;;;2.60;;
5167;SDS011;2603;48.918;8.980;2024-02-26T11:06:18;6.67;;;3.93;;
5167;SDS011;2603;48.918;8.980;2024-02-26T11:08:47;6.20;;;3.07;;
5167;SDS011;2603;48.918;8.980;2024-02-26T11:11:14;5.10;;;2.90;;
5167;SDS011;2603;48.918;8.980;2024-02-26T11:13:42;7.60;;;3.43;;
5167;SDS011;2603;48.918;8.980;2024-02-26T11:16:13;10.07;;;5.13;;
5167;SDS011;2603;48.918;8.980;2024-02-26T11:18:40;10.07;;;4.67;;
5167;SDS011;2603;48.918;8.980;2024-02-26T11:21:07;32.97;;;15.10;;
5167;SDS011;2603;48.918;8.980;2024-02-26T11:23:34;12.00;;;6.70;;
5167;SDS011;2603;48.918;8.980;2024-02-26T11:26:02;8.87;;;3.10;;
5167;SDS011;2603;48.918;8.980;2024-02-26T11:28:30;13.80;;;5.10;;
5167;SDS011;2603;48.918;8.980;2024-02-26T11:30:59;7.53;;;2.63;;
5167;SDS011;2603;48.918;8.980;2024-02-26T11:33:27;7.60;;;3.70;;
5167;SDS011;2603;48.918;8.980;2024-02-26T11:35:54;5.90;;;2.70;;
5167;SDS011;2603;48.918;8.980;2024-02-26T11:38:21;5.37;;;2.33;;
5167;SDS011;2603;48.918;8.980;2024-02-26T11:40:48;6.17;;;2.80;;
5167;SDS011;2603;48.918;8.980;2024-02-26T11:43:16;8.23;;;2.80;;
5167;SDS011;2603;48.918;8.980;2024-02-26T11:45:49;7.43;;;2.97;;
5167;SDS011;2603;48.918;8.980;2024-02-26T11:48:21;5.23;;;2.23;;
5167;SDS011;2603;48.918;8.980;2024-02-26T11:50:49;5.10;;;3.00;;
5167;SDS011;2603;48.918;8.980;2024-02-26T11:53:20;3.77;;;2.27;;
5167;SDS011;2603;48.918;8.980;2024-02-26T11:55:48;5.30;;;2.57;;
5167;SDS011;2603;48.918;8.980;2024-02-26T11:58:14;4.17;;;2.30;;
5167;SDS011;2603;48.918;8.980;2024-02-26T12:00:42;5.63;;;2.70;;
5167;SDS011;2603;48.918;8.980;2024-02-26T12:03:08;6.57;;;2.40;;
5167;SDS011;2603;48.918;8.980;2024-02-26T12:05:38;5.10;;;2.40;;
5167;SDS011;2603;48.918;8.980;2024-02-26T12:08:05;4.80;;;2.30;;
5167;SDS011;2603;48.918;8.980;2024-02-26T12:10:33;3.60;;;2.43;;
5167;SDS011;2603;48.918;8.980;2024-02-26T12:13:05;3.50;;;2.10;;
5167;SDS011;2603;48.918;8.980;2024-02-26T12:15:35;3.23;;;2.10;;
5167;SDS011;2603;48.918;8.980;2024-02-26T12:18:04;4.20;;;2.03;;
5167;SDS011;2603;48.918;8.980;2024-02-26T12:20:31;4.30;;;2.03;;
5167;SDS011;2603;48.918;8.980;2024-02-26T12:22:59;4.80;;;2.30;;
5167;SDS011;2603;48.918;8.980;2024-02-26T12:25:26;3.80;;;2.27;;
5167;SDS011;2603;48.918;8.980;2024-02-26T12:27:54;4.20;;;2.20;;
5167;SDS011;2603;48.918;8.980;2024-02-26T12:30:20;5.07;;;2.70;;
5167;SDS011;2603;48.918;8.980;2024-02-26T12:32:47;3.13;;;1.77;;
5167;SDS011;2603;48.918;8.980;2024-02-26T12:35:14;3.40;;;2.10;;
5167;SDS011;2603;48.918;8.980;2024-02-26T12:37:41;4.83;;;1.87;;
5167;SDS011;2603;48.918;8.980;2024-02-26T12:40:09;3.07;;;1.50;;
5167;SDS011;2603;48.918;8.980;2024-02-26T12:42:37;5.70;;;1.90;;
5167;SDS011;2603;48.918;8.980;2024-02-26T12:45:05;2.40;;;1.67;;
5167;SDS011;2603;48.918;8.980;2024-02-26T12:47:35;3.60;;;2.07;;
5167;SDS011;2603;48.918;8.980;2024-02-26T12:50:02;5.53;;;1.57;;
5167;SDS011;2603;48.918;8.980;2024-02-26T12:52:29;4.17;;;1.90;;
5167;SDS011;2603;48.918;8.980;2024-02-26T12:54:56;5.60;;;1.70;;
5167;SDS011;2603;48.918;8.980;2024-02-26T12:57:23;2.93;;;1.60;;
5167;SDS011;2603;48.918;8.980;2024-02-26T12:59:50;3.03;;;1.70;;
5167;SDS011;2603;48.918;8.980;2024-02-26T13:02:17;4.10;;;1.60;;
5167;SDS011;2603;48.918;8.980;2024-02-26T13:04:43;3.60;;;1.50;;
5167;SDS011;2603;48.918;8.980;2024-02-26T13:07:10;2.63;;;1.50;;
5167;SDS011;2603;48.918;8.980;2024-02-26T13:09:37;3.73;;;1.57;;
5167;SDS011;2603;48.918;8.980;2024-02-26T13:12:04;3.70;;;1.60;;
5167;SDS011;2603;48.918;8.980;2024-02-26T13:14:32;3.20;;;1.57;;
5167;SDS011;2603;48.918;8.980;2024-02-26T13:17:00;4.27;;;1.80;;
5167;SDS011;2603;48.918;8.980;2024-02-26T13:19:27;3.03;;;1.43;;
5167;SDS011;2603;48.918;8.980;2024-02-26T13:21:54;3.87;;;2.13;;
5167;SDS011;2603;48.918;8.980;2024-02-26T13:24:20;4.10;;;1.80;;
5167;SDS011;2603;48.918;8.980;2024-02-26T13:26:53;2.37;;;1.27;;
5167;SDS011;2603;48.918;8.980;2024-02-26T13:29:20;3.60;;;1.70;;
5167;SDS011;2603;48.918;8.980;2024-02-26T13:31:48;3.67;;;1.83;;
5167;SDS011;2603;48.918;8.980;2024-02-26T13:34:23;3.43;;;1.77;;
5167;SDS011;2603;48.918;8.980;2024-02-26T13:36:50;1.90;;;1.03;;
5167;SDS011;2603;48.918;8.980;2024-02-26T13:39:21;3.20;;;1.60;;
5167;SDS011;2603;48.918;8.980;2024-02-26T13:41:48;2.07;;;1.17;;
5167;SDS011;2603;48.918;8.980;2024-02-26T13:44:15;2.80;;;1.07;;
5167;SDS011;2603;48.918;8.980;2024-02-26T13:46:41;1.70;;;1.00;;
5167;SDS011;2603;48.918;8.980;2024-02-26T13:49:09;3.40;;;1.00;;
5167;SDS011;2603;48.918;8.980;2024-02-26T13:51:36;3.93;;;1.27;;
5167;SDS011;2603;48.918;8.980;2024-02-26T13:54:03;3.17;;;0.80;;
5167;SDS011;2603;48.918;8.980;2024-02-26T13:56:29;3.67;;;0.90;;
5167;SDS011;2603;48.918;8.980;2024-02-26T13:58:56;8.50;;;3.23;;
5167;SDS011;2603;48.918;8.980;2024-02-26T14:01:23;3.30;;;1.00;;
5167;SDS011;2603;48.918;8.980;2024-02-26T14:03:49;11.67;;;2.53;;
5167;SDS011;2603;48.918;8.980;2024-02-26T14:06:17;2.80;;;1.00;;
5167;SDS011;2603;48.918;8.980;2024-02-26T14:08:44;3.53;;;0.90;;
5167;SDS011;2603;48.918;8.980;2024-02-26T14:11:11;1.60;;;0.80;;
5167;SDS011;2603;48.918;8.980;2024-02-26T14:13:37;1.83;;;0.70;;
5167;SDS011;2603;48.918;8.980;2024-02-26T14:16:04;2.40;;;1.00;;
5167;SDS011;2603;48.918;8.980;2024-02-26T14:18:31;1.83;;;0.80;;
5167;SDS011;2603;48.918;8.980;2024-02-26T14:20:57;2.40;;;1.57;;
5167;SDS011;2603;48.918;8.980;2024-02-26T14:23:25;1.70;;;0.70;;
5167;SDS011;2603;48.918;8.980;2024-02-26T14:25:51;1.90;;;1.10;;
5167;SDS011;2603;48.918;8.980;2024-02-26T14:28:18;4.40;;;2.37;;
5167;SDS011;2603;48.918;8.980;2024-02-26T14:30:45;4.40;;;0.97;;
5167;SDS011;2603;48.918;8.980;2024-02-26T14:33:12;3.87;;;0.80;;
5167;SDS011;2603;48.918;8.980;2024-02-26T14:35:38;2.37;;;1.03;;
5167;SDS011;2603;48.918;8.980;2024-02-26T14:38:05;3.03;;;1.00;;
5167;SDS011;2603;48.918;8.980;2024-02-26T14:40:33;1.40;;;0.70;;
5167;SDS011;2603;48.918;8.980;2024-02-26T14:42:59;3.00;;;1.00;;
5167;SDS011;2603;48.918;8.980;2024-02-26T14:45:26;2.30;;;1.07;;
5167;SDS011;2603;48.918;8.980;2024-02-26T14:47:52;2.10;;;1.00;;
5167;SDS011;2603;48.918;8.980;2024-02-26T14:50:20;1.20;;;0.70;;
5167;SDS011;2603;48.918;8.980;2024-02-26T14:52:46;1.90;;;0.60;;
5167;SDS011;2603;48.918;8.980;2024-02-26T14:55:13;2.70;;;0.90;;
5167;SDS011;2603;48.918;8.980;2024-02-26T14:57:41;1.83;;;0.63;;
5167;SDS011;2603;48.918;8.980;2024-02-26T15:00:08;1.40;;;0.70;;
5167;SDS011;2603;48.918;8.980;2024-02-26T15:02:35;1.40;;;0.60;;
5167;SDS011;2603;48.918;8.980;2024-02-26T15:05:02;4.20;;;0.80;;
5167;SDS011;2603;48.918;8.980;2024-02-26T15:07:32;1.50;;;0.73;;
5167;SDS011;2603;48.918;8.980;2024-02-26T15:09:59;1.20;;;0.60;;
5167;SDS011;2603;48.918;8.980;2024-02-26T15:12:25;2.83;;;1.00;;